Time;durP1;ratioP1;P1;durP2;ratioP2;P2;SDS_P1;SDS_P2;PMS_P1;PMS_P2;Temp;Humidity;BMP_temperature;BMP_pressure;BME280_temperature;BME280_humidity;BME280_pressure;Samples;Min_cycle;Max_cycle;Signal;HPM_P1;HPM_P2
2021/08/17 00:06:19;;;;;;;16.70;4.90;;;12.90;99.90;;;;;;6722929;88;20275;-75
2021/08/17 00:16:23;;;;;;;13.10;5.22;;;12.90;99.90;;;;;;6720408;77;20181;-76
2021/08/17 00:26:23;;;;;;;14.23;5.25;;;13.00;99.90;;;;;;6715903;88;20199;-77
2021/08/17 00:36:24;;;;;;;11.43;5.35;;;13.10;99.90;;;;;;6723312;88;20230;-78
2021/08/17 00:46:24;;;;;;;16.35;5.68;;;13.00;99.90;;;;;;6725725;88;20248;-77
2021/08/17 00:56:25;;;;;;;15.73;5.93;;;12.90;99.90;;;;;;6725513;88;20192;-77
2021/08/17 01:06:26;;;;;;;19.92;7.40;;;12.80;99.90;;;;;;6727893;88;20281;-77
2021/08/17 01:16:27;;;;;;;18.77;7.72;;;12.80;99.90;;;;;;6726778;88;20189;-76
2021/08/17 01:26:27;;;;;;;22.33;9.10;;;12.70;99.90;;;;;;6724134;88;20240;-76
2021/08/17 01:36:28;;;;;;;22.37;9.10;;;12.60;99.90;;;;;;6727985;88;20255;-77
2021/08/17 01:46:29;;;;;;;18.20;9.20;;;12.60;99.90;;;;;;6722287;88;20217;-76
2021/08/17 01:56:29;;;;;;;23.45;9.45;;;12.50;99.90;;;;;;6722402;88;20237;-76
2021/08/17 02:06:30;;;;;;;27.58;10.27;;;12.60;99.90;;;;;;6723391;88;20198;-77
2021/08/17 02:16:31;;;;;;;25.62;9.85;;;12.70;99.90;;;;;;6719072;88;20190;-76
2021/08/17 02:26:31;;;;;;;27.58;10.07;;;12.60;99.90;;;;;;6729546;88;20169;-76
2021/08/17 02:36:32;;;;;;;25.70;9.52;;;12.50;99.90;;;;;;6719240;88;20580;-76
2021/08/17 02:46:32;;;;;;;24.65;10.63;;;12.60;99.90;;;;;;6718855;88;20333;-76
2021/08/17 02:56:33;;;;;;;24.63;9.93;;;12.60;99.90;;;;;;6718978;88;20683;-77
2021/08/17 03:06:34;;;;;;;22.60;10.02;;;12.60;99.90;;;;;;6718070;88;20193;-77
2021/08/17 03:16:35;;;;;;;21.98;9.52;;;12.40;99.90;;;;;;6717398;88;20571;-77
2021/08/17 03:26:36;;;;;;;22.67;9.75;;;12.40;99.90;;;;;;6717237;88;20205;-76
2021/08/17 03:36:37;;;;;;;21.33;9.65;;;12.40;99.90;;;;;;6718501;88;20308;-77
2021/08/17 03:46:37;;;;;;;21.98;9.45;;;12.10;99.90;;;;;;6717723;88;20188;-76
2021/08/17 03:56:37;;;;;;;25.02;9.43;;;12.20;99.90;;;;;;6718657;88;20192;-76
2021/08/17 04:06:38;;;;;;;20.92;9.23;;;12.10;99.90;;;;;;6718678;88;20305;-76
2021/08/17 04:16:39;;;;;;;28.02;10.20;;;12.30;99.90;;;;;;6717526;88;20235;-76
2021/08/17 04:26:39;;;;;;;22.45;9.30;;;12.10;99.90;;;;;;6717077;88;20219;-75
2021/08/17 04:36:40;;;;;;;25.30;9.33;;;12.30;99.90;;;;;;6718587;88;20221;-76
2021/08/17 04:46:40;;;;;;;25.48;10.02;;;12.20;99.90;;;;;;6720152;88;20544;-77
2021/08/17 04:56:41;;;;;;;21.95;10.13;;;12.20;99.90;;;;;;6725644;88;20225;-77
2021/08/17 05:06:41;;;;;;;26.27;9.90;;;12.30;99.90;;;;;;6718495;88;20212;-76
2021/08/17 05:16:42;;;;;;;23.67;9.45;;;12.60;99.90;;;;;;6717749;88;20983;-77
2021/08/17 05:26:43;;;;;;;22.35;9.88;;;12.80;99.90;;;;;;6721135;88;20236;-77
2021/08/17 05:36:43;;;;;;;22.48;9.63;;;13.00;99.90;;;;;;6720652;88;20261;-78
2021/08/17 05:46:45;;;;;;;24.08;10.05;;;13.30;99.90;;;;;;6724210;88;20213;-77
2021/08/17 05:56:45;;;;;;;24.30;10.57;;;13.50;99.90;;;;;;6721630;88;20833;-77
2021/08/17 06:06:47;;;;;;;23.58;10.18;;;13.60;99.90;;;;;;6723942;88;20198;-77
2021/08/17 06:16:47;;;;;;;28.95;10.75;;;13.80;99.90;;;;;;6726402;77;20349;-75
2021/08/17 06:26:48;;;;;;;27.13;10.27;;;14.20;99.90;;;;;;6729502;88;20316;-76
2021/08/17 06:36:49;;;;;;;24.30;10.55;;;14.50;99.90;;;;;;6727936;88;20189;-76
2021/08/17 06:46:49;;;;;;;21.87;9.83;;;14.90;99.90;;;;;;6728250;88;20333;-76
2021/08/17 06:56:50;;;;;;;23.02;10.30;;;15.60;99.90;;;;;;6734616;88;20280;-76
2021/08/17 07:06:50;;;;;;;31.15;10.60;;;15.80;99.90;;;;;;6726703;88;20202;-76
2021/08/17 07:16:51;;;;;;;23.40;10.50;;;16.00;99.90;;;;;;6717610;88;20193;-76
2021/08/17 07:26:51;;;;;;;27.05;9.93;;;16.30;99.90;;;;;;6716577;88;20211;-76
2021/08/17 07:36:52;;;;;;;25.73;10.18;;;16.60;99.90;;;;;;6722485;88;20184;-75
2021/08/17 07:46:53;;;;;;;25.17;9.85;;;17.00;99.90;;;;;;6728726;88;21103;-75
2021/08/17 07:56:53;;;;;;;24.63;9.98;;;16.90;99.90;;;;;;6727145;88;20192;-73
2021/08/17 08:06:54;;;;;;;23.90;9.93;;;17.10;99.90;;;;;;6722015;88;20226;-75
2021/08/17 08:16:58;;;;;;;21.02;8.80;;;16.80;99.90;;;;;;6720905;88;20336;-76
2021/08/17 08:26:58;;;;;;;21.05;9.45;;;17.30;99.90;;;;;;6726123;88;20188;-75
2021/08/17 08:36:59;;;;;;;18.30;8.68;;;18.30;99.90;;;;;;6722898;88;22199;-76
2021/08/17 08:47:00;;;;;;;19.05;9.18;;;18.50;99.90;;;;;;6716174;88;20204;-76
2021/08/17 08:57:00;;;;;;;17.08;8.40;;;19.10;99.90;;;;;;6720095;88;20235;-77
2021/08/17 09:07:01;;;;;;;16.73;8.00;;;18.90;99.90;;;;;;6723484;88;20315;-75
2021/08/17 09:17:04;;;;;;;17.35;8.40;;;18.20;99.90;;;;;;6724397;88;20185;-75
2021/08/17 09:27:10;;;;;;;16.08;7.87;;;18.30;99.90;;;;;;6720520;88;21142;-76
2021/08/17 09:37:11;;;;;;;15.75;7.47;;;18.80;99.90;;;;;;6719330;88;20755;-75
2021/08/17 09:47:13;;;;;;;17.90;7.82;;;19.00;99.90;;;;;;6717477;88;20211;-74
2021/08/17 09:57:14;;;;;;;15.15;7.35;;;18.90;99.90;;;;;;6722194;88;20201;-75
2021/08/17 10:07:15;;;;;;;17.27;7.80;;;18.80;99.90;;;;;;6720675;88;20317;-76
2021/08/17 10:17:15;;;;;;;13.65;7.07;;;18.70;99.90;;;;;;6724328;88;20193;-76
2021/08/17 10:27:24;;;;;;;14.02;7.22;;;18.70;99.90;;;;;;6724838;88;20607;-76
2021/08/17 10:37:24;;;;;;;16.90;7.15;;;19.00;99.90;;;;;;6718524;88;20772;-77
2021/08/17 10:47:34;;;;;;;12.52;6.12;;;18.60;99.90;;;;;;6726831;88;20301;-75
2021/08/17 10:57:58;;;;;;;12.63;6.30;;;18.50;99.90;;;;;;6725699;88;20707;-76
2021/08/17 11:08:47;;;;;;;13.80;5.73;;;18.50;99.90;;;;;;6728325;88;20200;-76
2021/08/17 11:18:56;;;;;;;12.23;6.43;;;18.50;99.90;;;;;;6735336;88;20300;-76
2021/08/17 11:28:56;;;;;;;14.13;6.15;;;18.60;99.90;;;;;;6727912;88;20202;-75
2021/08/17 11:39:19;;;;;;;12.48;5.90;;;18.40;99.90;;;;;;6725348;88;20232;-77
2021/08/17 11:49:24;;;;;;;11.70;5.93;;;18.30;99.90;;;;;;6724876;88;20844;-77
2021/08/17 11:59:35;;;;;;;12.00;5.68;;;17.90;99.90;;;;;;6728259;88;20611;-77
2021/08/17 12:09:38;;;;;;;11.98;6.07;;;17.70;99.90;;;;;;6725406;88;20217;-77
2021/08/17 12:19:49;;;;;;;12.60;6.20;;;17.60;99.90;;;;;;6723136;88;20175;-76
2021/08/17 12:29:50;;;;;;;10.82;5.47;;;17.60;99.90;;;;;;6733189;88;20355;-76
2021/08/17 12:39:59;;;;;;;12.75;5.60;;;17.80;99.90;;;;;;6725891;88;20366;-77
2021/08/17 12:50:03;;;;;;;10.32;4.85;;;18.20;99.90;;;;;;6724979;88;20193;-76
2021/08/17 13:00:06;;;;;;;12.57;5.10;;;18.20;99.90;;;;;;6724685;88;20184;-75
2021/08/17 13:10:09;;;;;;;8.95;4.28;;;18.50;99.90;;;;;;6730209;88;20189;-77
2021/08/17 13:20:12;;;;;;;8.82;4.60;;;18.20;99.90;;;;;;6730193;88;20220;-76
2021/08/17 13:30:14;;;;;;;8.77;4.55;;;18.10;99.90;;;;;;6729705;88;20220;-76
2021/08/17 13:40:15;;;;;;;8.13;4.05;;;17.90;99.90;;;;;;6726467;88;20196;-77
2021/08/17 13:50:16;;;;;;;8.48;4.03;;;18.00;99.90;;;;;;6726938;88;20239;-77
2021/08/17 14:00:17;;;;;;;11.63;4.53;;;17.70;99.90;;;;;;6730024;88;20794;-76
2021/08/17 14:10:17;;;;;;;13.15;5.90;;;17.00;99.90;;;;;;6726811;88;20211;-75
2021/08/17 14:20:18;;;;;;;14.60;6.30;;;15.70;99.90;;;;;;6729111;88;20262;-75
2021/08/17 14:30:18;;;;;;;16.83;6.78;;;14.90;99.90;;;;;;6730650;88;20535;-76
2021/08/17 14:40:19;;;;;;;18.27;7.07;;;14.70;99.90;;;;;;6730057;88;20173;-77
2021/08/17 14:50:19;;;;;;;14.27;7.30;;;14.80;99.90;;;;;;6725910;88;20206;-76
2021/08/17 15:00:21;;;;;;;18.35;6.70;;;14.80;99.90;;;;;;6729443;88;20209;-75
2021/08/17 15:10:21;;;;;;;15.77;6.32;;;14.80;99.90;;;;;;6726231;88;20668;-77
2021/08/17 15:20:23;;;;;;;12.40;5.85;;;14.80;99.90;;;;;;6726181;88;20219;-76
2021/08/17 15:30:26;;;;;;;12.00;5.30;;;14.80;99.90;;;;;;6729608;88;20190;-75
2021/08/17 15:40:27;;;;;;;9.98;5.03;;;14.70;99.90;;;;;;6729272;88;20209;-75
2021/08/17 15:50:27;;;;;;;10.98;4.95;;;14.50;99.90;;;;;;6734075;88;20194;-76
2021/08/17 16:00:28;;;;;;;11.07;5.35;;;14.30;99.90;;;;;;6723259;88;20258;-76
2021/08/17 16:10:30;;;;;;;12.93;5.72;;;14.50;99.90;;;;;;6728689;88;20247;-77
2021/08/17 16:20:31;;;;;;;13.77;5.35;;;14.50;99.90;;;;;;6727545;88;20233;-78
2021/08/17 16:30:32;;;;;;;9.88;4.70;;;14.20;99.90;;;;;;6727432;88;20254;-77
2021/08/17 16:40:32;;;;;;;13.07;4.95;;;14.10;99.90;;;;;;6723442;88;20212;-76
2021/08/17 16:50:33;;;;;;;9.03;4.63;;;14.00;99.90;;;;;;6722964;88;20190;-76
2021/08/17 17:00:34;;;;;;;9.98;4.80;;;14.00;99.90;;;;;;6725611;88;20503;-76
2021/08/17 17:10:34;;;;;;;9.32;4.53;;;14.10;99.90;;;;;;6725018;88;20239;-76
2021/08/17 17:20:35;;;;;;;9.25;5.18;;;14.20;99.90;;;;;;6727993;88;20263;-75
2021/08/17 17:30:36;;;;;;;13.80;6.28;;;14.20;99.90;;;;;;6730014;88;20667;-78
2021/08/17 17:40:37;;;;;;;12.37;5.60;;;14.10;99.90;;;;;;6727107;88;20190;-76
2021/08/17 17:50:37;;;;;;;15.65;6.62;;;14.30;99.90;;;;;;6733431;88;20209;-77
2021/08/17 18:00:38;;;;;;;13.43;6.30;;;14.20;99.90;;;;;;6742730;77;20244;-78
2021/08/17 18:10:39;;;;;;;13.62;5.90;;;14.20;99.90;;;;;;6716435;88;20220;-75
2021/08/17 18:20:39;;;;;;;12.90;6.12;;;14.30;99.90;;;;;;6707479;88;20822;-75
2021/08/17 18:30:43;;;;;;;13.48;5.78;;;14.30;99.90;;;;;;6707002;88;20506;-76
2021/08/17 18:40:44;;;;;;;11.30;5.80;;;14.20;99.90;;;;;;6710431;88;20581;-75
2021/08/17 18:50:45;;;;;;;13.20;5.53;;;14.20;99.90;;;;;;6713387;88;20320;-75
2021/08/17 19:00:48;;;;;;;10.50;4.93;;;14.20;99.90;;;;;;6709403;88;21059;-74
2021/08/17 19:10:50;;;;;;;10.18;5.20;;;14.30;99.90;;;;;;6719852;88;20194;-81
2021/08/17 19:20:51;;;;;;;7.50;3.90;;;14.30;99.90;;;;;;6726635;88;20170;-81
2021/08/17 19:31:00;;;;;;;8.20;3.70;;;14.30;99.90;;;;;;6722365;88;20214;-77
2021/08/17 19:41:01;;;;;;;7.93;3.53;;;14.10;99.90;;;;;;6726325;88;20308;-79
2021/08/17 19:51:02;;;;;;;8.30;4.20;;;14.20;99.90;;;;;;6722915;88;20729;-81
2021/08/17 20:01:05;;;;;;;8.68;3.92;;;14.30;99.90;;;;;;6721915;88;20260;-81
2021/08/17 20:11:09;;;;;;;6.03;3.12;;;14.10;99.90;;;;;;6718195;88;20234;-77
2021/08/17 20:21:11;;;;;;;5.90;3.53;;;14.20;99.90;;;;;;6708638;88;20222;-79
2021/08/17 20:31:25;;;;;;;7.20;3.28;;;14.20;99.90;;;;;;6732579;88;20680;-81
2021/08/17 20:41:26;;;;;;;5.07;3.03;;;14.20;99.90;;;;;;6719149;88;20199;-78
2021/08/17 20:51:31;;;;;;;4.90;2.37;;;14.20;99.90;;;;;;6716133;88;20205;-78
2021/08/17 21:01:34;;;;;;;;;;;14.40;99.90;;;;;;6715897;88;20250;-78
2021/08/17 21:11:38;;;;;;;3.67;1.40;;;14.40;99.90;;;;;;6715700;88;20054;-78
2021/08/17 21:21:41;;;;;;;2.35;1.40;;;14.40;99.90;;;;;;6714391;88;20216;-77
2021/08/17 21:31:44;;;;;;;3.17;1.37;;;14.50;99.90;;;;;;6706200;88;20283;-77
2021/08/17 21:41:48;;;;;;;2.90;1.30;;;14.40;99.90;;;;;;6705238;88;20332;-77
2021/08/17 21:51:51;;;;;;;1.87;1.25;;;14.50;99.90;;;;;;6709620;88;20186;-76
2021/08/17 22:01:53;;;;;;;6.47;1.37;;;14.60;99.90;;;;;;6703107;88;20247;-76
2021/08/17 22:12:00;;;;;;;3.35;1.02;;;14.60;99.90;;;;;;6708572;88;20217;-76
2021/08/17 22:22:03;;;;;;;2.33;0.80;;;14.60;99.90;;;;;;6705433;88;20183;-74
2021/08/17 22:32:07;;;;;;;4.18;0.90;;;14.60;99.90;;;;;;6707119;88;20722;-74
2021/08/17 22:42:11;;;;;;;2.80;0.70;;;14.70;99.90;;;;;;6706046;88;20192;-74
2021/08/17 22:52:15;;;;;;;1.48;0.80;;;14.70;99.90;;;;;;6708380;88;20241;-75
2021/08/17 23:02:21;;;;;;;1.33;0.70;;;14.80;99.90;;;;;;6703437;88;20213;-75
2021/08/17 23:12:24;;;;;;;1.50;0.70;;;14.90;99.90;;;;;;6705653;88;20174;-75
2021/08/17 23:22:34;;;;;;;4.68;0.85;;;14.90;99.90;;;;;;6707641;88;20189;-75
2021/08/17 23:32:46;;;;;;;1.80;1.02;;;14.80;99.90;;;;;;6700072;88;20648;-75
2021/08/17 23:42:47;;;;;;;1.77;1.05;;;14.70;99.90;;;;;;6707140;88;20197;-75
2021/08/17 23:52:50;;;;;;;1.55;0.90;;;15.00;99.90;;;;;;6705219;88;20678;-75
